createdAt,value
2023-04-30T00:02:09.117Z,98.79
2023-04-30T00:04:35.647Z,98.69
2023-04-30T00:07:02.323Z,98.77
2023-04-30T00:09:28.837Z,98.78
2023-04-30T00:11:55.402Z,99.02
2023-04-30T00:14:21.929Z,99.13
2023-04-30T00:16:48.402Z,99.26
2023-04-30T00:19:14.830Z,99.35
2023-04-30T00:21:42.161Z,99.51
2023-04-30T00:24:08.630Z,99.28
2023-04-30T00:26:35.207Z,99.39
2023-04-30T00:29:01.709Z,99.43
2023-04-30T00:31:28.276Z,99.32
2023-04-30T00:33:54.690Z,99.38
2023-04-30T00:36:21.375Z,99.48
2023-04-30T00:38:47.848Z,99.63
2023-04-30T00:41:14.861Z,99.63
2023-04-30T00:43:41.270Z,99.74
2023-04-30T00:46:07.884Z,99.84
2023-04-30T00:48:34.399Z,99.76
2023-04-30T00:51:03.877Z,99.86
2023-04-30T00:53:31.484Z,100.00
2023-04-30T00:55:57.939Z,100.00
2023-04-30T00:58:25.905Z,100.00
2023-04-30T01:00:53.009Z,100.00
2023-04-30T01:03:20.221Z,100.00
2023-04-30T01:05:46.749Z,100.00
2023-04-30T01:08:13.480Z,100.00
2023-04-30T01:10:52.335Z,100.00
2023-04-30T01:13:53.415Z,100.00
2023-04-30T01:16:25.267Z,100.00
2023-04-30T01:19:05.077Z,100.00
2023-04-30T01:21:33.448Z,100.00
2023-04-30T01:24:36.432Z,100.00
2023-04-30T01:27:24.397Z,100.00
2023-04-30T01:29:53.570Z,100.00
2023-04-30T01:32:20.220Z,100.00
2023-04-30T01:34:46.601Z,100.00
2023-04-30T01:37:18.954Z,100.00
2023-04-30T01:39:48.354Z,100.00
2023-04-30T01:42:25.514Z,100.00
2023-04-30T01:44:51.884Z,100.00
2023-04-30T01:47:39.104Z,100.00
2023-04-30T01:50:41.083Z,100.00
2023-04-30T01:53:12.188Z,100.00
2023-04-30T01:55:43.374Z,100.00
2023-04-30T01:58:12.314Z,100.00
2023-04-30T02:00:38.707Z,100.00
2023-04-30T02:03:05.469Z,100.00
2023-04-30T02:05:32.124Z,100.00
2023-04-30T02:07:59.707Z,100.00
2023-04-30T02:10:29.376Z,100.00
2023-04-30T02:12:55.943Z,100.00
2023-04-30T02:15:22.453Z,100.00
2023-04-30T02:17:49.329Z,100.00
2023-04-30T02:20:16.048Z,100.00
2023-04-30T02:22:42.755Z,100.00
2023-04-30T02:25:11.237Z,100.00
2023-04-30T02:27:38.605Z,100.00
2023-04-30T02:30:06.360Z,100.00
2023-04-30T02:32:32.941Z,100.00
2023-04-30T02:34:59.633Z,100.00
2023-04-30T02:37:26.234Z,100.00
2023-04-30T02:39:53.630Z,100.00
2023-04-30T02:42:20.436Z,100.00
2023-04-30T02:44:46.888Z,100.00
2023-04-30T02:47:13.345Z,100.00
2023-04-30T02:49:40.074Z,100.00
2023-04-30T02:52:09.419Z,100.00
2023-04-30T02:54:36.418Z,100.00
2023-04-30T02:57:03.627Z,100.00
2023-04-30T02:59:30.569Z,100.00
2023-04-30T03:01:57.159Z,100.00
2023-04-30T03:04:23.605Z,100.00
2023-04-30T03:06:50.086Z,100.00
2023-04-30T03:09:16.816Z,100.00
2023-04-30T03:11:43.199Z,100.00
2023-04-30T03:14:09.640Z,100.00
2023-04-30T03:16:36.638Z,100.00
2023-04-30T03:19:03.457Z,100.00
2023-04-30T03:21:30.887Z,100.00
2023-04-30T03:23:57.910Z,100.00
2023-04-30T03:26:24.471Z,100.00
2023-04-30T03:28:50.894Z,100.00
2023-04-30T03:31:17.831Z,100.00
2023-04-30T03:33:44.898Z,100.00
2023-04-30T03:36:11.686Z,100.00
2023-04-30T03:38:38.142Z,100.00
2023-04-30T03:41:04.797Z,100.00
2023-04-30T03:43:31.363Z,100.00
2023-04-30T03:45:58.077Z,100.00
2023-04-30T03:48:25.314Z,100.00
2023-04-30T03:50:51.788Z,100.00
2023-04-30T03:53:18.267Z,100.00
2023-04-30T03:55:45.086Z,100.00
2023-04-30T03:58:11.673Z,100.00
2023-04-30T04:00:41.423Z,100.00
2023-04-30T04:03:08.822Z,100.00
2023-04-30T04:05:35.291Z,100.00
2023-04-30T04:08:01.769Z,100.00
2023-04-30T04:10:28.553Z,100.00
2023-04-30T04:12:55.557Z,100.00
2023-04-30T04:15:22.114Z,100.00
2023-04-30T04:17:49.027Z,100.00
2023-04-30T04:20:15.519Z,100.00
2023-04-30T04:22:43.491Z,100.00
2023-04-30T04:25:10.411Z,100.00
2023-04-30T04:27:37.409Z,100.00
2023-04-30T04:30:04.254Z,100.00
2023-04-30T04:32:32.556Z,100.00
2023-04-30T04:34:59.438Z,100.00
2023-04-30T04:37:26.142Z,100.00
2023-04-30T04:39:52.803Z,100.00
2023-04-30T04:42:20.419Z,100.00
2023-04-30T04:44:47.367Z,100.00
2023-04-30T04:47:13.843Z,100.00
2023-04-30T04:49:40.257Z,100.00
2023-04-30T04:52:07.026Z,100.00
2023-04-30T04:54:33.910Z,100.00
2023-04-30T04:57:01.135Z,100.00
2023-04-30T04:59:27.516Z,100.00
2023-04-30T05:01:55.108Z,100.00
2023-04-30T05:04:21.748Z,100.00
2023-04-30T05:06:49.252Z,100.00
2023-04-30T05:09:16.269Z,100.00
2023-04-30T05:11:43.716Z,100.00
2023-04-30T05:14:10.166Z,100.00
2023-04-30T05:16:36.677Z,100.00
2023-04-30T05:19:03.452Z,100.00
2023-04-30T05:21:29.934Z,100.00
2023-04-30T05:23:56.371Z,100.00
2023-04-30T05:26:24.295Z,100.00
2023-04-30T05:28:52.224Z,100.00
2023-04-30T05:31:20.966Z,100.00
2023-04-30T05:33:47.768Z,100.00
2023-04-30T05:36:14.676Z,100.00
2023-04-30T05:38:41.341Z,100.00
2023-04-30T05:41:07.986Z,100.00
2023-04-30T05:43:34.619Z,100.00
2023-04-30T05:46:01.101Z,100.00
2023-04-30T05:48:27.640Z,100.00
2023-04-30T05:50:54.144Z,100.00
2023-04-30T05:53:20.644Z,100.00
2023-04-30T05:55:47.098Z,100.00
2023-04-30T05:58:13.495Z,100.00
2023-04-30T06:00:39.869Z,100.00
2023-04-30T06:03:06.418Z,100.00
2023-04-30T06:05:32.943Z,100.00
2023-04-30T06:07:59.415Z,100.00
2023-04-30T06:10:26.681Z,100.00
2023-04-30T06:12:53.141Z,100.00
2023-04-30T06:15:19.713Z,100.00
2023-04-30T06:17:46.458Z,100.00
2023-04-30T06:20:14.450Z,100.00
2023-04-30T06:22:41.254Z,100.00
2023-04-30T06:25:08.198Z,100.00
2023-04-30T06:27:34.895Z,100.00
2023-04-30T06:30:01.375Z,100.00
2023-04-30T06:32:27.908Z,100.00
2023-04-30T06:34:55.181Z,100.00
2023-04-30T06:37:21.604Z,100.00
2023-04-30T06:39:48.014Z,100.00
2023-04-30T06:42:14.396Z,100.00
2023-04-30T06:44:41.340Z,100.00
2023-04-30T06:47:08.316Z,100.00
2023-04-30T06:49:34.732Z,100.00
2023-04-30T06:52:01.455Z,100.00
2023-04-30T06:54:27.841Z,100.00
2023-04-30T06:56:54.366Z,100.00
2023-04-30T06:59:20.808Z,100.00
2023-04-30T07:01:47.665Z,100.00
2023-04-30T07:04:14.084Z,100.00
2023-04-30T07:06:40.531Z,100.00
2023-04-30T07:09:07.325Z,100.00
2023-04-30T07:11:33.742Z,100.00
2023-04-30T07:14:00.665Z,100.00
2023-04-30T07:16:27.956Z,100.00
2023-04-30T07:18:54.798Z,100.00
2023-04-30T07:21:21.832Z,100.00
2023-04-30T07:23:48.674Z,100.00
2023-04-30T07:26:15.837Z,100.00
2023-04-30T07:28:42.340Z,100.00
2023-04-30T07:31:08.751Z,100.00
2023-04-30T07:33:35.474Z,100.00
2023-04-30T07:36:01.914Z,100.00
2023-04-30T07:38:29.314Z,100.00
2023-04-30T07:40:55.815Z,99.94
2023-04-30T07:43:22.242Z,99.92
2023-04-30T07:45:49.956Z,99.76
2023-04-30T07:48:17.140Z,99.49
2023-04-30T07:50:43.543Z,99.21
2023-04-30T07:53:10.189Z,98.75
2023-04-30T07:55:36.619Z,98.40
2023-04-30T07:58:03.843Z,98.04
2023-04-30T08:00:31.126Z,98.08
2023-04-30T08:02:59.097Z,96.25
2023-04-30T08:05:26.787Z,96.40
2023-04-30T08:07:53.274Z,96.14
2023-04-30T08:10:19.832Z,95.94
2023-04-30T08:12:46.763Z,95.82
2023-04-30T08:15:13.297Z,95.94
2023-04-30T08:17:39.751Z,95.07
2023-04-30T08:20:07.035Z,95.17
2023-04-30T08:22:34.032Z,95.30
2023-04-30T08:25:01.827Z,94.51
2023-04-30T08:27:28.640Z,94.68
2023-04-30T08:29:55.188Z,94.75
2023-04-30T08:32:21.874Z,93.90
2023-04-30T08:34:48.328Z,94.11
2023-04-30T08:37:15.728Z,93.20
2023-04-30T08:39:42.108Z,92.47
2023-04-30T08:42:11.623Z,92.23
2023-04-30T08:44:39.678Z,91.96
2023-04-30T08:47:07.260Z,91.72
2023-04-30T08:49:33.949Z,91.75
2023-04-30T08:52:01.093Z,90.18
2023-04-30T08:54:31.481Z,90.44
2023-04-30T08:56:58.121Z,89.72
2023-04-30T08:59:24.512Z,89.28
2023-04-30T09:01:53.618Z,89.43
2023-04-30T09:04:20.780Z,89.03
2023-04-30T09:06:47.374Z,88.94
2023-04-30T09:09:16.155Z,88.48
2023-04-30T09:11:42.861Z,87.65
2023-04-30T09:14:09.333Z,87.25
2023-04-30T09:16:49.921Z,86.51
2023-04-30T09:19:23.425Z,86.15
2023-04-30T09:21:49.882Z,85.31
2023-04-30T09:24:18.702Z,82.99
2023-04-30T09:26:47.286Z,84.27
2023-04-30T09:29:14.387Z,84.39
2023-04-30T09:31:47.148Z,81.94
2023-04-30T09:34:15.000Z,81.69
2023-04-30T09:36:54.864Z,81.98
2023-04-30T09:39:21.746Z,82.83
2023-04-30T09:41:48.188Z,82.70
2023-04-30T09:44:31.974Z,81.26
2023-04-30T09:46:59.209Z,81.08
2023-04-30T09:49:27.121Z,80.63
2023-04-30T09:52:00.953Z,80.25
2023-04-30T09:54:30.444Z,78.62
2023-04-30T09:57:01.631Z,78.71
2023-04-30T09:59:30.648Z,78.53
2023-04-30T10:02:01.625Z,77.28
2023-04-30T10:04:31.974Z,76.56
2023-04-30T10:07:01.157Z,75.46
2023-04-30T10:09:35.305Z,73.55
2023-04-30T10:12:05.567Z,73.91
2023-04-30T10:14:34.232Z,73.09
2023-04-30T10:17:11.530Z,73.68
2023-04-30T10:19:41.620Z,73.24
2023-04-30T10:22:09.343Z,70.93
2023-04-30T10:24:36.568Z,71.96
2023-04-30T10:27:03.497Z,73.92
2023-04-30T10:29:29.897Z,74.33
2023-04-30T10:31:57.367Z,73.24
2023-04-30T10:34:35.716Z,72.24
2023-04-30T10:37:11.665Z,70.70
2023-04-30T10:39:38.835Z,71.34
2023-04-30T10:42:07.055Z,72.26
2023-04-30T10:44:35.153Z,71.78
2023-04-30T10:47:03.206Z,71.32
2023-04-30T10:49:30.008Z,71.34
2023-04-30T10:52:00.634Z,69.48
2023-04-30T10:54:29.135Z,67.57
2023-04-30T10:57:10.506Z,66.79
2023-04-30T10:59:37.154Z,65.76
2023-04-30T11:02:04.096Z,65.02
2023-04-30T11:04:30.620Z,62.60
2023-04-30T11:07:09.670Z,61.83
2023-04-30T11:09:44.965Z,60.05
2023-04-30T11:12:19.318Z,59.21
2023-04-30T11:14:46.718Z,59.81
2023-04-30T11:17:22.604Z,58.16
2023-04-30T11:19:50.638Z,57.85
2023-04-30T11:22:19.147Z,54.91
2023-04-30T11:25:03.713Z,52.02
2023-04-30T11:27:32.490Z,51.71
2023-04-30T11:29:59.988Z,51.72
2023-04-30T11:32:32.087Z,50.39
2023-04-30T11:34:58.680Z,46.82
2023-04-30T11:37:32.427Z,45.19
2023-04-30T11:40:05.778Z,40.98
2023-04-30T11:42:34.541Z,40.29
2023-04-30T11:45:23.219Z,39.05
2023-04-30T11:47:54.987Z,36.70
2023-04-30T11:50:29.615Z,34.80
2023-04-30T11:52:57.820Z,34.34
2023-04-30T11:55:25.733Z,34.81
2023-04-30T11:57:58.580Z,34.12
2023-04-30T12:00:30.466Z,33.32
2023-04-30T12:02:59.280Z,33.51
2023-04-30T12:05:27.976Z,32.48
2023-04-30T12:08:00.582Z,31.12
2023-04-30T12:10:27.214Z,31.03
2023-04-30T12:12:54.695Z,30.29
2023-04-30T12:15:28.977Z,29.80
2023-04-30T12:17:56.981Z,29.86
2023-04-30T12:20:28.188Z,29.44
2023-04-30T12:22:54.915Z,29.57
2023-04-30T12:25:22.741Z,29.57
2023-04-30T12:27:53.186Z,30.07
2023-04-30T12:30:21.383Z,29.69
2023-04-30T12:32:51.377Z,29.90
2023-04-30T12:35:21.084Z,29.30
2023-04-30T12:37:50.118Z,30.61
2023-04-30T12:40:19.223Z,31.04
2023-04-30T12:42:47.041Z,30.21
2023-04-30T12:45:47.858Z,29.92
2023-04-30T12:48:15.945Z,29.84
2023-04-30T12:50:47.165Z,28.78
2023-04-30T12:53:13.664Z,28.73
2023-04-30T12:55:40.089Z,28.21
2023-04-30T12:58:08.764Z,28.08
2023-04-30T13:00:45.451Z,27.96
2023-04-30T13:03:16.958Z,28.59
2023-04-30T13:05:48.187Z,28.91
2023-04-30T13:08:15.164Z,28.63
2023-04-30T13:10:41.721Z,28.51
2023-04-30T13:13:08.576Z,28.48
2023-04-30T13:15:35.121Z,28.01
2023-04-30T13:18:01.699Z,28.09
2023-04-30T13:20:28.174Z,27.83
2023-04-30T13:22:54.566Z,27.45
2023-04-30T13:25:22.039Z,27.23
2023-04-30T13:27:48.461Z,27.60
2023-04-30T13:30:14.953Z,27.50
2023-04-30T13:32:43.002Z,26.98
2023-04-30T13:35:10.169Z,26.61
2023-04-30T13:37:36.833Z,26.23
2023-04-30T13:40:03.990Z,27.18
2023-04-30T13:42:30.660Z,26.75
2023-04-30T13:44:57.457Z,26.41
2023-04-30T13:47:24.287Z,27.16
2023-04-30T13:49:50.900Z,27.23
2023-04-30T13:52:17.295Z,26.76
2023-04-30T13:54:43.714Z,26.21
2023-04-30T13:57:10.128Z,26.41
2023-04-30T13:59:36.680Z,26.73
2023-04-30T14:02:03.159Z,26.23
2023-04-30T14:04:31.130Z,26.81
2023-04-30T14:06:57.588Z,26.50
2023-04-30T14:09:24.200Z,26.50
2023-04-30T14:11:51.232Z,26.91
2023-04-30T14:14:17.696Z,27.56
2023-04-30T14:16:44.678Z,27.81
2023-04-30T14:19:11.170Z,27.17
2023-04-30T14:21:37.759Z,27.84
2023-04-30T14:24:04.777Z,27.94
2023-04-30T14:26:31.274Z,27.76
2023-04-30T14:28:57.958Z,26.87
2023-04-30T14:31:24.371Z,26.89
2023-04-30T14:33:50.789Z,27.04
2023-04-30T14:36:17.228Z,26.85
2023-04-30T14:38:43.829Z,26.81
2023-04-30T14:41:10.214Z,27.16
2023-04-30T14:43:36.627Z,27.00
2023-04-30T14:46:03.757Z,27.15
2023-04-30T14:48:30.285Z,28.23
2023-04-30T14:50:56.906Z,27.95
2023-04-30T14:53:23.268Z,27.72
2023-04-30T14:55:50.337Z,27.61
2023-04-30T14:58:17.309Z,27.69
2023-04-30T15:00:43.788Z,28.29
2023-04-30T15:03:10.249Z,28.69
2023-04-30T15:05:36.741Z,28.63
2023-04-30T15:08:03.220Z,28.20
2023-04-30T15:10:29.959Z,28.27
2023-04-30T15:12:56.333Z,28.50
2023-04-30T15:15:27.670Z,29.00
2023-04-30T15:17:58.096Z,28.91
2023-04-30T15:20:24.572Z,29.11
2023-04-30T15:22:51.179Z,29.28
2023-04-30T15:25:18.128Z,29.28
2023-04-30T15:27:44.594Z,29.67
2023-04-30T15:30:11.601Z,30.04
2023-04-30T15:32:38.805Z,30.07
2023-04-30T15:35:06.696Z,29.84
2023-04-30T15:37:34.483Z,30.07
2023-04-30T15:40:01.123Z,30.30
2023-04-30T15:42:27.563Z,30.51
2023-04-30T15:44:53.982Z,30.64
2023-04-30T15:47:23.225Z,30.37
2023-04-30T15:49:50.365Z,30.81
2023-04-30T15:52:17.352Z,31.14
2023-04-30T15:54:43.807Z,31.16
2023-04-30T15:57:10.369Z,31.19
2023-04-30T15:59:36.805Z,31.73
2023-04-30T16:02:03.303Z,31.53
2023-04-30T16:04:29.771Z,31.75
2023-04-30T16:06:57.056Z,32.03
2023-04-30T16:09:23.851Z,32.09
2023-04-30T16:11:51.103Z,32.20
2023-04-30T16:14:17.542Z,31.67
2023-04-30T16:16:43.955Z,32.22
2023-04-30T16:19:12.230Z,32.19
2023-04-30T16:21:39.326Z,32.91
2023-04-30T16:24:07.005Z,32.99
2023-04-30T16:26:34.791Z,32.96
2023-04-30T16:29:01.629Z,33.26
2023-04-30T16:31:28.560Z,33.08
2023-04-30T16:33:55.337Z,34.00
2023-04-30T16:36:22.047Z,36.50
2023-04-30T16:38:48.510Z,35.49
2023-04-30T16:41:16.812Z,34.85
2023-04-30T16:43:43.866Z,34.63
2023-04-30T16:46:10.649Z,34.76
2023-04-30T16:48:38.077Z,34.88
2023-04-30T16:51:05.449Z,35.20
2023-04-30T16:53:31.833Z,35.16
2023-04-30T16:55:58.288Z,35.58
2023-04-30T16:58:24.984Z,35.79
2023-04-30T17:00:55.852Z,35.86
2023-04-30T17:03:23.865Z,36.36
2023-04-30T17:05:52.868Z,35.81
2023-04-30T17:08:20.058Z,35.98
2023-04-30T17:10:47.945Z,36.23
2023-04-30T17:13:14.651Z,36.69
2023-04-30T17:15:41.265Z,36.86
2023-04-30T17:18:09.466Z,37.31
2023-04-30T17:20:36.368Z,37.52
2023-04-30T17:23:03.428Z,38.00
2023-04-30T17:25:31.696Z,38.36
2023-04-30T17:28:01.169Z,38.51
2023-04-30T17:30:30.857Z,38.67
2023-04-30T17:32:58.505Z,38.79
2023-04-30T17:35:25.422Z,39.15
2023-04-30T17:37:52.939Z,39.42
2023-04-30T17:40:19.390Z,39.89
2023-04-30T17:42:46.192Z,40.24
2023-04-30T17:45:12.617Z,40.03
2023-04-30T17:47:39.431Z,40.40
2023-04-30T17:50:08.319Z,40.77
2023-04-30T17:52:38.303Z,41.43
2023-04-30T17:55:07.650Z,42.23
2023-04-30T17:57:34.570Z,42.94
2023-04-30T18:00:01.294Z,43.42
2023-04-30T18:02:29.317Z,44.26
2023-04-30T18:04:56.406Z,43.65
2023-04-30T18:07:22.870Z,43.95
2023-04-30T18:09:49.289Z,44.41
2023-04-30T18:12:16.099Z,44.31
2023-04-30T18:14:42.891Z,44.72
2023-04-30T18:17:09.314Z,44.60
2023-04-30T18:19:43.070Z,45.29
2023-04-30T18:22:09.588Z,44.93
2023-04-30T18:24:36.114Z,44.48
2023-04-30T18:27:04.875Z,44.55
2023-04-30T18:29:31.498Z,44.97
2023-04-30T18:31:58.129Z,45.14
2023-04-30T18:34:25.023Z,45.79
2023-04-30T18:36:51.716Z,46.97
2023-04-30T18:39:18.453Z,46.60
2023-04-30T18:41:45.008Z,46.99
2023-04-30T18:44:11.775Z,47.33
2023-04-30T18:46:38.313Z,46.87
2023-04-30T18:49:05.370Z,46.58
2023-04-30T18:51:32.285Z,46.90
2023-04-30T18:53:58.680Z,47.34
2023-04-30T18:56:25.310Z,46.79
2023-04-30T18:58:52.126Z,47.25
2023-04-30T19:01:21.262Z,47.18
2023-04-30T19:03:48.210Z,47.48
2023-04-30T19:06:15.217Z,48.33
2023-04-30T19:08:42.721Z,47.86
2023-04-30T19:11:10.399Z,48.62
2023-04-30T19:13:36.809Z,49.41
2023-04-30T19:16:04.158Z,49.77
2023-04-30T19:18:30.725Z,49.59
2023-04-30T19:21:02.076Z,49.84
2023-04-30T19:23:30.725Z,50.14
2023-04-30T19:25:58.474Z,50.63
2023-04-30T19:28:25.234Z,50.77
2023-04-30T19:30:55.227Z,51.00
2023-04-30T19:33:22.670Z,50.90
2023-04-30T19:35:54.493Z,51.21
2023-04-30T19:38:21.711Z,51.42
2023-04-30T19:40:53.077Z,51.51
2023-04-30T19:43:23.077Z,52.08
2023-04-30T19:45:57.391Z,52.45
2023-04-30T19:48:25.519Z,53.01
2023-04-30T19:50:55.620Z,52.79
2023-04-30T19:53:22.458Z,53.27
2023-04-30T19:55:48.964Z,52.91
2023-04-30T19:58:15.462Z,53.02
2023-04-30T20:00:44.878Z,52.97
2023-04-30T20:03:13.817Z,53.52
2023-04-30T20:05:40.509Z,54.63
2023-04-30T20:08:08.909Z,55.32
2023-04-30T20:10:37.918Z,54.21
2023-04-30T20:13:06.253Z,54.70
2023-04-30T20:15:33.217Z,55.08
2023-04-30T20:18:01.397Z,56.00
2023-04-30T20:20:29.381Z,57.62
2023-04-30T20:22:56.759Z,58.77
2023-04-30T20:25:29.346Z,58.35
2023-04-30T20:27:56.326Z,57.83
2023-04-30T20:30:22.852Z,58.13
2023-04-30T20:32:49.381Z,59.02
2023-04-30T20:35:16.074Z,60.17
2023-04-30T20:37:42.633Z,59.97
2023-04-30T20:40:09.496Z,60.32
2023-04-30T20:42:36.058Z,60.88
2023-04-30T20:45:05.225Z,60.81
2023-04-30T20:47:32.266Z,60.76
2023-04-30T20:49:58.832Z,61.08
2023-04-30T20:52:25.976Z,60.27
2023-04-30T20:54:52.410Z,59.81
2023-04-30T20:57:19.854Z,60.28
2023-04-30T20:59:46.253Z,60.83
2023-04-30T21:02:12.696Z,60.29
2023-04-30T21:04:39.940Z,60.85
2023-04-30T21:07:10.965Z,62.03
2023-04-30T21:09:38.553Z,62.38
2023-04-30T21:12:05.377Z,62.27
2023-04-30T21:14:32.187Z,62.73
2023-04-30T21:16:59.642Z,63.14
2023-04-30T21:19:33.429Z,63.92
2023-04-30T21:22:00.380Z,64.78
2023-04-30T21:24:30.328Z,64.73
2023-04-30T21:26:57.025Z,64.26
2023-04-30T21:29:24.748Z,64.57
2023-04-30T21:31:51.126Z,64.85
2023-04-30T21:34:17.781Z,64.91
2023-04-30T21:36:44.228Z,64.13
2023-04-30T21:39:11.302Z,63.43
2023-04-30T21:41:37.752Z,63.89
2023-04-30T21:44:04.614Z,64.35
2023-04-30T21:46:31.224Z,64.01
2023-04-30T21:48:57.682Z,63.90
2023-04-30T21:51:24.146Z,64.17
2023-04-30T21:53:50.726Z,64.24
2023-04-30T21:56:17.781Z,64.54
2023-04-30T21:58:45.018Z,64.35
2023-04-30T22:01:11.574Z,64.49
2023-04-30T22:03:38.115Z,64.98
2023-04-30T22:06:04.921Z,64.41
2023-04-30T22:08:31.679Z,63.91
2023-04-30T22:10:59.692Z,64.11
2023-04-30T22:13:27.637Z,64.72
2023-04-30T22:15:54.874Z,64.37
2023-04-30T22:18:22.602Z,64.67
2023-04-30T22:20:49.947Z,64.83
2023-04-30T22:23:17.236Z,65.36
2023-04-30T22:25:43.957Z,65.33
2023-04-30T22:28:10.534Z,65.76
2023-04-30T22:30:37.704Z,66.63
2023-04-30T22:33:04.258Z,67.04
2023-04-30T22:35:31.032Z,67.39
2023-04-30T22:37:57.415Z,67.60
2023-04-30T22:40:24.162Z,67.78
2023-04-30T22:42:50.765Z,67.92
2023-04-30T22:45:17.231Z,68.36
2023-04-30T22:47:45.662Z,68.79
2023-04-30T22:50:12.249Z,69.58
2023-04-30T22:52:38.924Z,70.72
2023-04-30T22:55:06.617Z,71.81
2023-04-30T22:57:33.149Z,72.08
2023-04-30T22:59:59.621Z,72.07
2023-04-30T23:02:26.515Z,72.33
2023-04-30T23:04:53.016Z,72.17
2023-04-30T23:07:19.440Z,71.30
2023-04-30T23:09:46.113Z,71.41
2023-04-30T23:12:12.540Z,71.27
2023-04-30T23:14:39.166Z,71.80
2023-04-30T23:17:05.772Z,71.28
2023-04-30T23:19:32.780Z,71.90
2023-04-30T23:21:59.186Z,71.69
2023-04-30T23:24:26.198Z,71.72
2023-04-30T23:26:52.679Z,72.61
2023-04-30T23:29:19.563Z,72.22
2023-04-30T23:31:46.271Z,72.70
2023-04-30T23:34:12.820Z,73.26
2023-04-30T23:36:39.958Z,73.42
2023-04-30T23:39:06.383Z,73.46
2023-04-30T23:41:32.778Z,73.17
2023-04-30T23:43:59.220Z,73.75
2023-04-30T23:46:25.682Z,73.88
2023-04-30T23:48:52.093Z,74.28
2023-04-30T23:51:18.940Z,74.86
2023-04-30T23:53:45.709Z,74.93
2023-04-30T23:56:12.307Z,75.21
2023-04-30T23:58:38.856Z,74.84
